Overview Statistics Trail Chart Weather Telemetry Raw packets
 

This is the latest recevied weather packets stored in our database for station/object R8AHC-W5. If no packets are shown the sender has not sent any weather packets the latest 10 day(s).

<< 5 6 7 8 9 10 >>
Time Temp. Humidity Pressure Rain* Wind** Luminosity Snow
1777553702 8.89° C 90% 1018 hPa - 3.58 m/s, 58° - -
1777550102 13.33° C 52% 1018 hPa - 3.13 m/s, 115° - -
1777546502 14.44° C 41% 1018 hPa - 3.13 m/s, 93° - -
1777542903 14.44° C 39% 1018 hPa - 3.13 m/s, 75° - -
1777539302 14.44° C 38% 1019 hPa - 3.58 m/s, 71° - -
1777535702 14.44° C 38% 1019 hPa - 3.58 m/s, 59° - -
1777532102 13.89° C 40% 1020 hPa - 3.58 m/s, 63° - -
1777528502 12.78° C 44% 1021 hPa - 3.58 m/s, 58° - -
1777524903 11.11° C 48% 1021 hPa - 4.02 m/s, 65° - -
1777521302 10.56° C 51% 1021 hPa - 4.02 m/s, 64° - -
1777517701 8.89° C 56% 1022 hPa - 3.58 m/s, 55° - -
1777514102 7.22° C 63% 1022 hPa - 2.68 m/s, 46° - -
1777510503 6.11° C 65% 1022 hPa - 3.13 m/s, 44° - -
1777506902 6.67° C 61% 1022 hPa - 2.68 m/s, 43° - -
1777503302 6.67° C 59% 1022 hPa - 2.68 m/s, 16° - -
1777499701 7.22° C 57% 1022 hPa - 2.68 m/s, 346° - -
1777496102 7.78° C 55% 1021 hPa - 3.13 m/s, 324° - -
1777492502 8.33° C 53% 1021 hPa - 2.68 m/s, 300° - -
1777488902 8.89° C 51% 1021 hPa - 2.68 m/s, 268° - -
1777485301 9.44° C 51% 1020 hPa - 3.13 m/s, 237° - -
1777481702 10° C 47% 1020 hPa - 3.13 m/s, 223° - -
1777478102 11.11° C 44% 1020 hPa - 3.13 m/s, 211° - -
1777474502 12.22° C 41% 1020 hPa - 3.13 m/s, 213° - -
1777470902 13.89° C 34% 1019 hPa - 4.02 m/s, 233° - -
1777467302 14.44° C 29% 1019 hPa - 4.92 m/s, 242° - -

* Rain since midnight (hover to see other rain measurements)
** Current wind speed in m/s (hover to see current wind gust speed)